Juneau International Airport Juneau US
ICAO: PAJN
IATA: JNU
Category: Medium
Scheduled Services:

Elevation: 21 ft
TransAlt. 18000 ft.

Airport Communications:
ATIS:135.2
TWEB:114
ANCHORAGE CNTR:133.9
CTAF:118.7
RDO:122.2
GND:121.9
RDO:122.15
NAT GD OPS:124.65
TWR:118.7
UNICOM:122.95

PAJN Zoom In..

If you have problems with the map follow the link
https://www.worldairports.se/pages/airport.php?
ICAO=PAJN

Runways:

(A) RW 08 length 8457 ft width 150 ft
---- / hdg 85

(B) RW 26 length 8457 ft width 150 ft
---- / hdg 265

Location; PAJN
Day. 19 / Time. 13.53 Zulu
* Altimeter: 29.87
* Temperature: 10° c. 50°f.
* Wind from: 120° Speed 15 kn.
Dewpoint: 07° c.
Visibility: 10 Statute Miles.
Clouds: Scattered 3900 ft.
Clouds: Broken 8000 ft.
Clouds: Overcast 1000 ft.

PAJN 191353Z 12015KT 10SM SCT039 BKN080 OVC100 10/07 A2987 RMK AO2 SLP113 T01000067 $


Wind From 120°
Speed 15 kn.

 
 
jpsmedia.com for Web Design worldairports.se 2018   terms of use